Aérodrome :
LOGIN :

S'inscrire | Disclaimer

   EN    FR    IT 

 










Légende :    VFR   VFR Marginal   IFR   IFR Intensif   IFR Très Intensif
Visi : 
Plafond : 
>= 8 km
>= 3000ft
5 à 8 km
1000 à 3000 ft
1500m à 5 km
500 à 1000 ft
800 à 1500m
200 à 500 ft
< 800m
< 200 ft
Symboles :   Orages  Brouillard  Fortes neiges  Fortes précipitations  Vent > 20 kt
SIGMETs :   Divers  Orages  Givrage  Turbulence  Onde Orograph.  Cendres Volcan.







- Altitude de l'aérodrome : 1411 ft
- Code IATA : SZG


LOWS - Salzburg

DERNIER METAR :
  • 292050Z 15005KT 120V180 CAVOK 04/01 Q1017 NOSIG

METARs EXPIRÉS :
  • 292020Z 16005KT CAVOK 04/01 Q1017 NOSIG
  • 291950Z 17005KT CAVOK 05/01 Q1018 NOSIG
  • 291920Z 16005KT 9999 FEW100 04/01 Q1017 NOSIG
  • 291850Z 04003KT 020V170 9999 FEW100 06/01 Q1017 NOSIG
  • 291820Z 03004KT 9999 FEW060 09/M00 Q1017 NOSIG

TAF TAF LOWS
Valide du 29 à 18h jusqu'au 30 à 18h UTC


291715Z 2918/3018 15006KT CAVOK TX19/3015Z TNM01/3003Z
BECMG 3006/3008 04009KT
Pas de NOTAMs connus pour ce terrain.



MET'MAP, la Météo Aéronautique d'un coup d'oeil ! - Copyright ORBIFLY Décembre 2007 - Disclaimer

ORBIFLY MET'MAP TEAM :

Programmation & Développement : Alexandra Zaïnal
Conception & Développement : Baudouin d'Aumeries
Co-Programmation & Développement : Marc-Olivier Méhu
Soutien technique & logistique : Manuel Goepfert

Contact : metmap@orbifly.com




SOURCES & CREDITS :

   NOAA